Time;durP1;ratioP1;P1;durP2;ratioP2;P2;SDS_P1;SDS_P2;PMS_P1;PMS_P2;Temp;Humidity;BMP_temperature;BMP_pressure;BME280_temperature;BME280_humidity;BME280_pressure;Samples;Min_cycle;Max_cycle;Signal;HPM_P1;HPM_P2
2023/06/16 00:01:08;;;;;;;6.10;5.50;;;22.40;48.30;;;;;;5022114;28;20160;-79
2023/06/16 00:03:34;;;;;;;6.38;5.20;;;22.40;48.30;;;;;;5022921;28;20198;-79
2023/06/16 00:06:03;;;;;;;6.20;5.60;;;22.40;48.30;;;;;;5022512;28;20151;-79
2023/06/16 00:08:31;;;;;;;6.18;5.57;;;22.40;48.30;;;;;;5022274;28;20152;-79
2023/06/16 00:10:58;;;;;;;6.20;5.60;;;22.40;48.40;;;;;;5021861;28;20684;-80
2023/06/16 00:13:24;;;;;;;5.95;5.38;;;22.30;48.40;;;;;;5022235;28;20167;-80
2023/06/16 00:15:49;;;;;;;5.57;4.97;;;22.30;48.40;;;;;;5021520;28;20144;-81
2023/06/16 00:18:16;;;;;;;6.13;5.53;;;22.30;48.40;;;;;;5021877;28;20255;-80
2023/06/16 00:20:42;;;;;;;6.13;5.45;;;22.40;48.40;;;;;;5021595;28;20164;-80
2023/06/16 00:23:09;;;;;;;5.80;5.20;;;22.30;48.40;;;;;;5005762;28;20174;-81
2023/06/16 00:25:35;;;;;;;6.05;5.20;;;22.30;48.40;;;;;;5021899;28;20158;-81
2023/06/16 00:28:00;;;;;;;5.93;5.32;;;22.40;48.40;;;;;;5005665;28;20167;-82
2023/06/16 00:30:28;;;;;;;5.97;5.38;;;22.40;49.10;;;;;;5005990;28;20201;-80
2023/06/16 00:32:55;;;;;;;5.82;5.22;;;22.30;48.40;;;;;;5022041;28;20172;-80
2023/06/16 00:35:22;;;;;;;5.97;5.38;;;22.30;48.40;;;;;;5022743;28;20293;-80
2023/06/16 00:37:51;;;;;;;5.93;5.32;;;22.30;48.50;;;;;;5021495;28;20156;-84
2023/06/16 00:40:17;;;;;;;5.20;4.70;;;22.30;48.60;;;;;;5004926;28;20195;-80
2023/06/16 00:42:44;;;;;;;5.93;5.32;;;22.30;48.60;;;;;;5005563;28;20175;-80
2023/06/16 00:45:10;;;;;;;6.10;5.50;;;22.30;48.50;;;;;;5005350;28;20171;-80
2023/06/16 00:47:35;;;;;;;5.93;5.25;;;22.30;48.50;;;;;;5022256;28;20276;-81
2023/06/16 00:50:01;;;;;;;5.72;5.13;;;22.20;48.50;;;;;;5022786;28;20175;-78
2023/06/16 00:52:29;;;;;;;6.00;5.43;;;22.30;48.50;;;;;;5021225;28;20191;-84
2023/06/16 00:54:57;;;;;;;6.00;5.40;;;22.30;48.60;;;;;;5021141;28;20156;-79
2023/06/16 00:57:24;;;;;;;6.03;5.53;;;22.30;48.60;;;;;;5022087;28;20186;-82
2023/06/16 00:59:51;;;;;;;5.88;5.28;;;22.20;48.50;;;;;;5020595;28;20154;-80
2023/06/16 01:02:18;;;;;;;5.95;5.35;;;22.20;48.50;;;;;;5021063;28;20167;-79
2023/06/16 01:04:48;;;;;;;6.10;5.50;;;22.30;48.60;;;;;;5005248;28;20617;-80
2023/06/16 01:07:25;;;;;;;6.13;5.53;;;22.30;48.60;;;;;;5022025;28;20166;-79
2023/06/16 01:09:57;;;;;;;6.07;5.43;;;22.30;48.60;;;;;;5021028;28;20155;-80
2023/06/16 01:12:44;;;;;;;6.38;5.60;;;22.20;48.60;;;;;;5022502;28;20215;-79
2023/06/16 01:15:13;;;;;;;5.70;5.20;;;22.20;48.70;;;;;;5024769;28;20162;-82
2023/06/16 01:17:43;;;;;;;6.00;5.40;;;22.20;48.70;;;;;;5024547;28;20155;-80
2023/06/16 01:20:29;;;;;;;6.00;5.40;;;22.20;48.70;;;;;;5025699;28;20264;-79
2023/06/16 01:23:00;;;;;;;5.50;5.00;;;22.30;48.70;;;;;;5025546;28;20219;-80
2023/06/16 01:25:28;;;;;;;5.60;5.03;;;22.20;48.70;;;;;;5025019;28;20159;-79
2023/06/16 01:27:54;;;;;;;6.35;5.63;;;22.20;48.70;;;;;;5025222;28;20301;-80
2023/06/16 01:30:24;;;;;;;5.82;5.22;;;22.20;48.70;;;;;;5024693;28;20206;-79
2023/06/16 01:32:53;;;;;;;6.18;5.57;;;22.20;49.40;;;;;;5008649;28;20178;-79
2023/06/16 01:35:20;;;;;;;5.75;5.18;;;22.20;48.70;;;;;;5007973;28;20178;-79
2023/06/16 01:37:49;;;;;;;6.05;5.45;;;22.20;48.70;;;;;;5024217;28;20219;-79
2023/06/16 01:40:15;;;;;;;6.05;5.45;;;22.20;48.70;;;;;;5024607;28;20155;-81
2023/06/16 01:42:40;;;;;;;5.72;5.13;;;22.20;48.70;;;;;;5024527;28;20163;-80
2023/06/16 01:45:08;;;;;;;5.50;5.00;;;22.20;48.80;;;;;;5026330;28;20209;-80
2023/06/16 01:47:34;;;;;;;5.70;5.10;;;22.20;48.80;;;;;;5008164;28;20231;-82
2023/06/16 01:50:01;;;;;;;6.18;5.57;;;22.20;48.80;;;;;;5008277;28;20167;-82
2023/06/16 01:52:28;;;;;;;5.95;5.35;;;22.10;48.70;;;;;;5025011;28;20170;-80
2023/06/16 01:54:53;;;;;;;5.88;5.32;;;22.10;48.80;;;;;;5024695;28;20224;-79
2023/06/16 01:57:22;;;;;;;6.03;5.45;;;22.10;48.80;;;;;;5024278;28;20187;-83
2023/06/16 01:59:52;;;;;;;6.85;5.38;;;22.10;48.80;;;;;;5024929;28;20189;-80
2023/06/16 02:02:17;;;;;;;6.25;5.50;;;22.10;48.80;;;;;;5024510;28;20198;-80
2023/06/16 02:04:45;;;;;;;6.05;5.45;;;22.10;48.80;;;;;;5024431;28;20611;-81
2023/06/16 02:07:14;;;;;;;6.07;5.47;;;22.10;48.90;;;;;;5024518;28;20322;-81
2023/06/16 02:09:39;;;;;;;6.22;5.63;;;22.10;48.90;;;;;;5024780;28;20155;-79
2023/06/16 02:12:09;;;;;;;5.55;5.05;;;22.20;49.00;;;;;;5024186;28;20237;-81
2023/06/16 02:14:35;;;;;;;5.90;5.30;;;22.10;48.90;;;;;;5023966;28;20167;-80
2023/06/16 02:17:05;;;;;;;6.10;5.50;;;22.10;48.90;;;;;;5007927;28;20162;-82
2023/06/16 02:19:32;;;;;;;5.60;5.07;;;22.10;48.90;;;;;;5007078;28;20588;-79
2023/06/16 02:21:59;;;;;;;5.55;5.05;;;22.10;48.90;;;;;;5007517;28;20175;-80
2023/06/16 02:24:28;;;;;;;5.53;5.00;;;22.10;48.90;;;;;;5024068;28;20162;-80
2023/06/16 02:26:54;;;;;;;5.95;5.35;;;22.10;48.90;;;;;;5022854;28;20274;-80
2023/06/16 02:29:20;;;;;;;6.22;5.63;;;22.00;48.90;;;;;;5024901;28;20573;-78
2023/06/16 02:31:47;;;;;;;5.63;5.13;;;22.10;48.90;;;;;;5007314;28;20197;-80
2023/06/16 02:34:13;;;;;;;5.75;5.25;;;22.10;48.90;;;;;;5024023;28;20167;-80
2023/06/16 02:36:40;;;;;;;5.80;4.97;;;22.10;49.00;;;;;;5025254;28;20159;-78
2023/06/16 02:39:06;;;;;;;6.00;4.88;;;22.10;49.00;;;;;;5006418;28;20156;-79
2023/06/16 02:41:33;;;;;;;5.43;4.93;;;22.00;48.90;;;;;;5023339;28;20149;-81
2023/06/16 02:43:59;;;;;;;5.35;4.85;;;22.00;48.90;;;;;;5023811;28;20160;-80
2023/06/16 02:46:24;;;;;;;5.72;5.13;;;22.10;49.00;;;;;;5006261;28;20226;-81
2023/06/16 02:48:51;;;;;;;5.30;4.80;;;22.00;49.10;;;;;;5024578;28;20168;-81
2023/06/16 02:51:16;;;;;;;5.80;5.20;;;22.00;49.00;;;;;;5022727;28;20195;-81
2023/06/16 02:53:45;;;;;;;5.28;4.78;;;22.00;49.00;;;;;;5024545;28;20160;-79
2023/06/16 02:56:11;;;;;;;5.95;5.35;;;22.00;49.00;;;;;;5022450;28;20178;-81
2023/06/16 02:58:38;;;;;;;5.78;5.28;;;22.00;49.00;;;;;;5023754;28;20513;-79
2023/06/16 03:01:04;;;;;;;6.28;5.55;;;22.00;49.10;;;;;;5023092;28;20159;-80
2023/06/16 03:03:31;;;;;;;6.07;5.47;;;22.00;49.10;;;;;;5022032;28;20732;-79
2023/06/16 03:05:59;;;;;;;5.78;5.18;;;22.00;49.10;;;;;;5022333;28;20637;-83
2023/06/16 03:08:25;;;;;;;6.18;5.57;;;22.00;49.10;;;;;;5023272;28;20163;-79
2023/06/16 03:10:51;;;;;;;5.75;5.15;;;22.00;49.10;;;;;;5022159;28;20192;-82
2023/06/16 03:13:18;;;;;;;5.53;5.03;;;22.00;49.10;;;;;;5023317;28;20198;-80
2023/06/16 03:15:44;;;;;;;5.82;5.22;;;22.00;49.10;;;;;;5017865;28;20247;-81
2023/06/16 03:18:11;;;;;;;6.13;5.32;;;21.90;49.10;;;;;;5017635;28;20160;-80
2023/06/16 03:20:39;;;;;;;5.50;5.00;;;22.00;49.10;;;;;;5017549;28;20170;-80
2023/06/16 03:23:05;;;;;;;5.82;5.28;;;22.00;49.10;;;;;;5017529;28;20158;-81
2023/06/16 03:25:30;;;;;;;6.20;5.60;;;22.00;49.10;;;;;;4999773;28;20163;-80
2023/06/16 03:27:57;;;;;;;5.95;5.35;;;21.90;49.20;;;;;;5017727;28;20549;-81
2023/06/16 03:30:22;;;;;;;5.90;5.07;;;21.90;49.20;;;;;;5017294;28;20187;-80
2023/06/16 03:32:49;;;;;;;6.10;5.50;;;21.90;49.10;;;;;;5015977;28;20166;-82
2023/06/16 03:35:15;;;;;;;5.55;5.05;;;21.90;49.20;;;;;;5000353;28;20163;-80
2023/06/16 03:37:41;;;;;;;5.47;4.97;;;22.00;49.20;;;;;;5016559;28;20298;-81
2023/06/16 03:40:08;;;;;;;5.93;5.32;;;21.90;49.20;;;;;;5017079;28;20156;-80
2023/06/16 03:42:35;;;;;;;5.30;4.78;;;21.90;49.20;;;;;;5015407;28;20221;-81
2023/06/16 03:45:01;;;;;;;6.00;5.40;;;21.90;49.20;;;;;;5014938;28;20235;-82
2023/06/16 03:47:27;;;;;;;5.90;5.30;;;21.90;49.20;;;;;;5014833;28;20235;-79
2023/06/16 03:49:53;;;;;;;6.03;5.32;;;21.90;49.20;;;;;;5015824;28;20646;-80
2023/06/16 03:52:19;;;;;;;6.22;5.63;;;21.90;49.20;;;;;;5014651;28;20190;-84
2023/06/16 03:54:46;;;;;;;5.88;5.28;;;21.90;49.90;;;;;;5015085;28;20167;-81
2023/06/16 03:57:13;;;;;;;5.63;5.13;;;21.90;49.20;;;;;;5015025;28;20187;-80
2023/06/16 03:59:38;;;;;;;6.20;5.60;;;21.90;49.20;;;;;;5015798;28;20674;-83
2023/06/16 04:02:06;;;;;;;6.10;5.50;;;21.90;49.20;;;;;;5014202;28;20191;-79
2023/06/16 04:04:32;;;;;;;5.60;5.10;;;21.90;49.10;;;;;;5015792;28;20174;-83
2023/06/16 04:06:58;;;;;;;5.88;5.28;;;21.90;49.20;;;;;;5014519;28;20156;-80
2023/06/16 04:09:24;;;;;;;5.95;5.35;;;21.90;49.20;;;;;;4997856;28;20164;-82
2023/06/16 04:11:49;;;;;;;5.68;5.13;;;21.90;49.20;;;;;;5014023;28;20187;-81
2023/06/16 04:14:15;;;;;;;5.75;5.13;;;21.90;49.20;;;;;;5014149;28;20206;-79
2023/06/16 04:16:42;;;;;;;6.20;5.03;;;21.90;49.20;;;;;;5013972;28;20578;-84
2023/06/16 04:19:09;;;;;;;5.80;5.25;;;21.90;49.20;;;;;;4997693;28;20159;-80
2023/06/16 04:21:36;;;;;;;6.03;5.43;;;21.90;49.20;;;;;;5014260;28;20581;-83
2023/06/16 04:24:03;;;;;;;5.55;5.00;;;22.00;49.20;;;;;;5013846;28;20198;-81
2023/06/16 04:26:29;;;;;;;6.60;5.25;;;22.00;49.20;;;;;;5014004;28;20163;-82
2023/06/16 04:28:55;;;;;;;5.95;5.35;;;22.00;49.10;;;;;;4997239;28;20221;-83
2023/06/16 04:31:22;;;;;;;5.90;5.30;;;21.90;49.20;;;;;;5013410;28;20210;-82
2023/06/16 04:33:48;;;;;;;6.13;5.53;;;21.90;49.10;;;;;;5013509;28;20148;-83
2023/06/16 04:36:16;;;;;;;5.60;5.10;;;22.00;49.10;;;;;;4997228;28;20170;-82
2023/06/16 04:38:44;;;;;;;5.72;5.13;;;22.00;49.10;;;;;;5013325;28;20155;-83
2023/06/16 04:41:11;;;;;;;5.47;4.95;;;22.00;48.90;;;;;;5013265;28;20298;-80
2023/06/16 04:43:36;;;;;;;5.88;5.20;;;22.10;48.90;;;;;;5014261;28;20185;-84
2023/06/16 04:46:02;;;;;;;5.35;4.82;;;22.00;48.90;;;;;;4996391;28;20693;-83
2023/06/16 04:48:27;;;;;;;5.95;5.35;;;22.10;48.90;;;;;;4996291;28;20633;-81
2023/06/16 04:50:56;;;;;;;5.57;5.07;;;22.10;48.80;;;;;;4996931;28;20209;-82
2023/06/16 04:53:22;;;;;;;5.35;4.85;;;22.10;48.80;;;;;;5014596;28;20609;-81
2023/06/16 04:55:50;;;;;;;5.82;5.22;;;22.10;49.40;;;;;;5015279;28;20156;-80
2023/06/16 04:58:16;;;;;;;5.15;4.65;;;22.20;48.70;;;;;;5014385;28;20168;-80
2023/06/16 05:00:43;;;;;;;5.60;5.00;;;22.10;48.70;;;;;;4998102;28;20174;-82
2023/06/16 05:03:10;;;;;;;5.63;5.13;;;22.10;48.70;;;;;;5014776;28;20168;-80
2023/06/16 05:05:36;;;;;;;5.50;5.00;;;22.20;48.60;;;;;;4998529;28;20168;-82
2023/06/16 05:08:01;;;;;;;5.65;5.05;;;22.20;48.60;;;;;;5014287;28;20237;-83
2023/06/16 05:10:27;;;;;;;5.60;5.10;;;22.10;48.60;;;;;;4997693;28;20194;-82
2023/06/16 05:12:54;;;;;;;6.47;5.28;;;22.20;48.70;;;;;;5014024;28;20159;-84
2023/06/16 05:15:20;;;;;;;5.85;5.28;;;22.20;48.60;;;;;;5013890;28;20298;-79
2023/06/16 05:17:46;;;;;;;5.90;5.30;;;22.20;48.60;;;;;;5014947;28;20195;-81
2023/06/16 05:20:11;;;;;;;5.15;4.65;;;22.20;48.50;;;;;;5013380;28;20649;-81
2023/06/16 05:22:37;;;;;;;5.70;5.05;;;22.20;48.50;;;;;;4997258;28;20578;-81
2023/06/16 05:25:03;;;;;;;5.22;4.72;;;22.30;48.40;;;;;;4997441;28;20704;-81
2023/06/16 05:27:28;;;;;;;5.28;4.78;;;22.30;48.50;;;;;;5014400;28;20156;-80
2023/06/16 05:29:54;;;;;;;5.50;5.00;;;22.30;48.40;;;;;;5014852;28;20167;-80
2023/06/16 05:32:21;;;;;;;5.78;5.18;;;22.30;48.30;;;;;;5014117;28;20526;-84
2023/06/16 05:34:48;;;;;;;5.25;4.75;;;22.40;48.30;;;;;;4997730;28;20519;-79
2023/06/16 05:37:15;;;;;;;6.38;5.28;;;22.30;48.30;;;;;;5014397;28;20152;-81
2023/06/16 05:39:43;;;;;;;6.28;5.20;;;22.30;48.50;;;;;;5013607;28;20528;-81
2023/06/16 05:42:10;;;;;;;5.75;5.15;;;22.10;48.90;;;;;;5012892;28;20163;-81
2023/06/16 05:44:36;;;;;;;5.35;4.85;;;22.10;49.20;;;;;;5014150;28;20156;-81
2023/06/16 05:47:02;;;;;;;5.10;4.60;;;22.20;49.40;;;;;;5013460;28;20353;-83
2023/06/16 05:49:28;;;;;;;5.07;4.57;;;22.20;49.30;;;;;;5012145;28;20183;-79
2023/06/16 05:51:56;;;;;;;5.72;5.07;;;22.10;49.50;;;;;;5012047;28;20187;-84
2023/06/16 05:54:25;;;;;;;5.40;4.90;;;22.10;49.30;;;;;;5013054;28;20148;-83
2023/06/16 05:56:50;;;;;;;5.75;5.13;;;22.10;49.50;;;;;;4996668;28;20160;-79
2023/06/16 05:59:17;;;;;;;5.40;4.90;;;22.10;49.60;;;;;;5012070;28;20155;-79
2023/06/16 06:01:42;;;;;;;5.28;4.78;;;22.20;49.40;;;;;;5014651;28;20160;-81
2023/06/16 06:04:11;;;;;;;5.30;4.80;;;22.20;49.40;;;;;;4999332;28;20509;-82
2023/06/16 06:06:38;;;;;;;5.60;5.10;;;22.20;49.60;;;;;;5015619;28;20688;-83
2023/06/16 06:09:04;;;;;;;5.28;4.78;;;22.30;50.10;;;;;;4999284;28;20191;-79
2023/06/16 06:11:31;;;;;;;5.28;4.78;;;22.20;49.50;;;;;;5015541;28;20187;-80
2023/06/16 06:13:57;;;;;;;5.43;4.93;;;22.20;49.40;;;;;;4999104;28;20163;-79
2023/06/16 06:16:23;;;;;;;5.57;5.00;;;22.20;49.40;;;;;;4999314;28;20166;-82
2023/06/16 06:18:50;;;;;;;4.90;4.50;;;22.20;49.60;;;;;;5015999;28;20152;-82
2023/06/16 06:21:16;;;;;;;5.25;4.75;;;22.20;49.50;;;;;;5024065;28;20160;-82
2023/06/16 06:23:41;;;;;;;4.78;4.30;;;22.30;49.40;;;;;;5032693;28;20185;-79
2023/06/16 06:26:10;;;;;;;5.25;4.75;;;22.30;49.20;;;;;;5015440;28;20166;-79
2023/06/16 06:28:36;;;;;;;5.28;4.28;;;22.30;49.10;;;;;;5032353;28;20164;-80
2023/06/16 06:31:01;;;;;;;5.03;4.53;;;22.30;49.40;;;;;;5026689;28;20229;-79
2023/06/16 06:33:27;;;;;;;5.20;4.68;;;22.40;49.00;;;;;;5017751;28;20159;-79
2023/06/16 06:35:53;;;;;;;4.97;4.47;;;22.50;49.30;;;;;;5019716;28;20622;-80
2023/06/16 06:38:18;;;;;;;5.05;4.55;;;22.50;48.80;;;;;;5036455;28;20164;-81
2023/06/16 06:40:44;;;;;;;5.40;4.88;;;22.50;49.10;;;;;;5018539;28;20171;-81
2023/06/16 06:43:11;;;;;;;5.32;4.82;;;22.40;49.60;;;;;;5015731;28;20218;-81
2023/06/16 06:45:36;;;;;;;5.30;4.80;;;22.40;49.70;;;;;;5014526;28;20239;-83
2023/06/16 06:48:02;;;;;;;5.35;4.55;;;22.30;49.50;;;;;;5014442;28;20265;-83
2023/06/16 06:50:28;;;;;;;5.32;4.80;;;22.40;49.70;;;;;;5014298;28;20226;-84
2023/06/16 06:52:53;;;;;;;5.40;4.68;;;22.30;49.60;;;;;;5016098;28;20178;-80
2023/06/16 06:55:20;;;;;;;5.30;4.80;;;22.40;49.90;;;;;;5014900;28;20170;-80
2023/06/16 06:57:47;;;;;;;4.97;4.45;;;22.40;49.50;;;;;;5014423;28;20148;-81
2023/06/16 07:00:14;;;;;;;5.22;4.72;;;22.40;49.50;;;;;;5014251;28;20159;-81
2023/06/16 07:02:41;;;;;;;7.80;4.55;;;22.40;49.30;;;;;;5014011;28;20159;-80
2023/06/16 07:05:08;;;;;;;4.80;4.40;;;22.50;49.40;;;;;;4997985;28;20166;-80
2023/06/16 07:07:34;;;;;;;5.35;4.85;;;22.50;49.10;;;;;;5030306;28;20208;-82
2023/06/16 07:09:59;;;;;;;4.68;4.20;;;22.40;49.10;;;;;;5014929;28;20286;-79
2023/06/16 07:12:25;;;;;;;4.88;4.45;;;22.50;49.30;;;;;;5013741;28;20249;-81
2023/06/16 07:14:51;;;;;;;5.15;4.65;;;22.50;49.10;;;;;;5013728;28;20156;-80
2023/06/16 07:17:16;;;;;;;5.32;4.82;;;22.50;48.90;;;;;;5013809;28;20515;-79
2023/06/16 07:19:42;;;;;;;6.00;4.60;;;22.50;48.90;;;;;;5013691;28;20194;-78
2023/06/16 07:22:08;;;;;;;5.20;4.72;;;22.50;48.90;;;;;;4997068;28;20199;-81
2023/06/16 07:24:34;;;;;;;5.10;4.60;;;22.50;49.00;;;;;;5013814;28;20210;-80
2023/06/16 07:27:01;;;;;;;4.85;4.40;;;22.50;49.10;;;;;;5014701;28;20187;-79
2023/06/16 07:29:27;;;;;;;4.45;4.05;;;22.50;49.10;;;;;;5030486;28;20167;-79
2023/06/16 07:31:53;;;;;;;4.72;4.20;;;22.50;49.00;;;;;;5014285;28;20198;-80
2023/06/16 07:34:18;;;;;;;4.65;4.25;;;22.60;48.90;;;;;;5013659;28;20162;-78
2023/06/16 07:36:44;;;;;;;4.82;4.40;;;22.50;49.60;;;;;;5013697;28;20171;-81
2023/06/16 07:39:10;;;;;;;5.72;4.65;;;22.60;48.90;;;;;;5013503;28;20174;-80
2023/06/16 07:41:36;;;;;;;5.22;4.40;;;22.60;48.90;;;;;;5029777;28;20254;-78
2023/06/16 07:44:02;;;;;;;4.95;4.53;;;22.70;48.80;;;;;;4997185;28;20163;-81
2023/06/16 07:46:28;;;;;;;4.97;4.50;;;22.60;48.90;;;;;;4997259;28;20773;-79
2023/06/16 07:48:53;;;;;;;5.18;4.68;;;22.60;49.00;;;;;;5013724;28;20175;-81
2023/06/16 07:51:21;;;;;;;5.45;4.57;;;22.60;48.80;;;;;;5014364;28;20277;-80
2023/06/16 07:53:48;;;;;;;4.82;4.40;;;22.70;48.90;;;;;;5014769;28;20179;-81
2023/06/16 07:56:15;;;;;;;4.88;4.32;;;22.70;48.80;;;;;;5014808;28;20190;-80
2023/06/16 07:58:40;;;;;;;5.10;4.53;;;22.60;48.80;;;;;;4998358;28;20244;-80
2023/06/16 08:01:06;;;;;;;5.07;4.57;;;22.70;48.80;;;;;;4996919;28;20218;-80
2023/06/16 08:03:32;;;;;;;5.05;4.40;;;22.70;48.80;;;;;;4997327;28;20195;-80
2023/06/16 08:05:57;;;;;;;5.03;4.53;;;22.70;49.60;;;;;;5015048;28;20517;-80
2023/06/16 08:08:26;;;;;;;5.20;4.70;;;22.70;48.90;;;;;;5030830;28;20163;-80
2023/06/16 08:10:53;;;;;;;4.57;4.18;;;22.60;49.10;;;;;;5013799;28;20179;-80
2023/06/16 08:13:19;;;;;;;4.90;4.50;;;22.60;49.10;;;;;;5015515;28;20242;-81
2023/06/16 08:15:44;;;;;;;5.18;4.68;;;22.70;49.00;;;;;;5015726;28;20208;-81
2023/06/16 08:18:10;;;;;;;4.68;4.28;;;22.70;49.00;;;;;;5031821;28;20163;-81
2023/06/16 08:20:36;;;;;;;5.00;4.50;;;22.70;48.90;;;;;;5015886;28;20164;-81
2023/06/16 08:23:02;;;;;;;5.00;4.50;;;22.80;48.70;;;;;;4997765;28;20210;-81
2023/06/16 08:25:27;;;;;;;4.82;4.40;;;22.80;48.70;;;;;;5014088;28;20163;-80
2023/06/16 08:27:53;;;;;;;5.13;4.63;;;22.80;48.80;;;;;;5014136;28;20583;-80
2023/06/16 08:30:19;;;;;;;4.90;4.50;;;22.80;48.60;;;;;;5012870;28;20554;-80
2023/06/16 08:32:44;;;;;;;4.70;4.30;;;22.80;48.70;;;;;;4997128;28;20545;-80
2023/06/16 08:35:12;;;;;;;4.63;4.22;;;22.80;48.70;;;;;;5013839;28;20513;-81
2023/06/16 08:37:38;;;;;;;5.30;4.80;;;22.80;48.50;;;;;;4996924;28;20194;-80
2023/06/16 08:40:08;;;;;;;4.60;4.20;;;22.70;48.60;;;;;;4994504;28;20163;-80
2023/06/16 08:42:36;;;;;;;4.95;4.45;;;22.70;48.60;;;;;;4996956;28;20322;-81
2023/06/16 08:45:04;;;;;;;4.63;4.22;;;22.80;48.40;;;;;;5012799;28;20159;-80
2023/06/16 08:47:30;;;;;;;5.13;4.63;;;22.80;48.50;;;;;;5013362;28;20206;-80
2023/06/16 08:49:56;;;;;;;5.20;4.50;;;22.70;48.50;;;;;;5029014;28;20182;-81
2023/06/16 08:52:23;;;;;;;4.70;4.30;;;22.80;48.50;;;;;;5012700;28;20195;-80
2023/06/16 08:54:56;;;;;;;4.68;4.28;;;22.80;48.40;;;;;;5013471;28;20147;-80
2023/06/16 08:57:22;;;;;;;4.72;4.32;;;22.90;48.20;;;;;;5012638;28;20159;-80
2023/06/16 08:59:50;;;;;;;5.30;4.57;;;22.80;48.30;;;;;;5012223;28;20163;-80
2023/06/16 09:02:17;;;;;;;4.50;4.10;;;22.80;48.40;;;;;;5030605;28;20170;-81
2023/06/16 09:04:43;;;;;;;5.50;4.68;;;22.80;48.40;;;;;;5016857;28;20174;-81
2023/06/16 09:07:09;;;;;;;4.80;4.35;;;22.80;48.30;;;;;;5015793;28;20232;-80
2023/06/16 09:09:34;;;;;;;5.20;4.70;;;22.80;48.30;;;;;;5032427;28;20175;-80
2023/06/16 09:12:10;;;;;;;5.35;4.57;;;22.70;48.30;;;;;;5015299;28;20222;-80
2023/06/16 09:14:38;;;;;;;4.60;4.07;;;22.80;48.20;;;;;;5030568;28;20215;-81
2023/06/16 09:17:05;;;;;;;4.95;4.45;;;22.80;48.00;;;;;;5031654;28;20143;-80
2023/06/16 09:19:36;;;;;;;4.70;4.30;;;22.90;48.00;;;;;;5032029;28;20151;-81
2023/06/16 09:22:02;;;;;;;5.72;4.50;;;22.80;48.10;;;;;;5032111;28;20159;-80
2023/06/16 09:24:28;;;;;;;4.65;4.25;;;22.70;48.20;;;;;;5032394;28;20155;-81
2023/06/16 09:27:01;;;;;;;4.70;4.30;;;22.70;48.20;;;;;;5012062;28;20624;-80
2023/06/16 09:29:28;;;;;;;4.90;4.40;;;22.70;48.20;;;;;;5011911;28;20603;-80
2023/06/16 09:31:54;;;;;;;5.60;4.10;;;22.70;48.20;;;;;;5012086;28;20184;-80
2023/06/16 09:34:19;;;;;;;4.90;4.40;;;22.80;48.10;;;;;;5011879;28;20625;-80
2023/06/16 09:36:45;;;;;;;4.60;4.20;;;22.80;48.10;;;;;;5014652;28;20163;-80
2023/06/16 09:39:23;;;;;;;4.55;4.15;;;22.80;48.10;;;;;;5015564;28;20227;-80
2023/06/16 09:41:50;;;;;;;4.75;4.35;;;22.80;48.10;;;;;;5014773;28;20159;-79
2023/06/16 09:44:16;;;;;;;6.22;4.25;;;22.80;48.10;;;;;;5021731;28;20155;-80
2023/06/16 09:46:42;;;;;;;6.03;4.20;;;22.80;48.00;;;;;;5036078;28;20273;-80
2023/06/16 09:49:18;;;;;;;5.10;4.45;;;22.80;47.80;;;;;;5034948;28;20178;-80
2023/06/16 09:51:46;;;;;;;4.43;4.03;;;22.80;47.80;;;;;;5035064;28;20190;-80
2023/06/16 09:54:13;;;;;;;4.97;4.47;;;22.80;47.70;;;;;;5015131;28;20197;-80
2023/06/16 09:56:38;;;;;;;4.55;4.15;;;22.80;47.80;;;;;;5015232;28;20179;-80
2023/06/16 09:59:05;;;;;;;4.88;4.38;;;22.80;47.70;;;;;;5031720;28;20650;-81
2023/06/16 10:01:30;;;;;;;5.25;4.50;;;22.80;47.50;;;;;;5015451;28;20152;-81
2023/06/16 10:03:56;;;;;;;5.00;4.53;;;22.80;47.50;;;;;;4999124;28;20225;-80
2023/06/16 10:06:22;;;;;;;4.50;4.10;;;22.80;47.40;;;;;;5018408;28;20258;-80
2023/06/16 10:08:48;;;;;;;5.10;4.40;;;22.80;47.40;;;;;;5031808;28;20640;-80
2023/06/16 10:11:15;;;;;;;4.80;4.40;;;22.80;47.50;;;;;;5034572;28;20187;-80
2023/06/16 10:13:41;;;;;;;4.70;4.30;;;22.80;47.50;;;;;;5018395;28;20190;-80
2023/06/16 10:16:08;;;;;;;4.60;4.10;;;22.80;47.50;;;;;;5035024;28;20178;-80
2023/06/16 10:18:34;;;;;;;4.88;4.38;;;22.80;47.40;;;;;;5034607;28;20641;-80
2023/06/16 10:21:00;;;;;;;5.43;4.40;;;22.90;47.30;;;;;;5034713;28;20209;-79
2023/06/16 10:23:25;;;;;;;4.50;4.10;;;22.90;47.10;;;;;;5035607;28;20175;-79
2023/06/16 10:25:51;;;;;;;4.60;4.20;;;22.90;47.10;;;;;;5035505;28;20202;-80
2023/06/16 10:28:19;;;;;;;4.72;4.32;;;22.90;47.00;;;;;;5034481;28;20167;-80
2023/06/16 10:30:44;;;;;;;4.50;4.10;;;22.90;47.10;;;;;;5035562;28;20189;-80
2023/06/16 10:33:22;;;;;;;4.55;4.15;;;22.90;47.00;;;;;;5036160;28;20166;-80
2023/06/16 10:35:50;;;;;;;4.57;4.18;;;22.90;46.90;;;;;;5034931;28;20151;-80
2023/06/16 10:38:16;;;;;;;4.47;4.07;;;22.90;46.70;;;;;;5034951;28;20245;-80
2023/06/16 10:40:42;;;;;;;4.60;4.20;;;23.00;46.70;;;;;;5035685;28;20201;-80
2023/06/16 10:43:10;;;;;;;4.55;4.15;;;23.00;46.60;;;;;;5034508;28;20551;-81
2023/06/16 10:45:39;;;;;;;4.47;4.07;;;23.00;46.60;;;;;;5034852;28;20245;-80
2023/06/16 10:48:10;;;;;;;4.40;4.00;;;23.00;46.50;;;;;;5017405;28;20309;-81
2023/06/16 10:50:42;;;;;;;5.47;4.60;;;23.00;46.50;;;;;;5034370;28;20637;-80
2023/06/16 10:53:14;;;;;;;4.53;4.13;;;23.00;46.30;;;;;;5018313;28;20622;-80
2023/06/16 10:55:42;;;;;;;8.50;4.10;;;23.00;46.30;;;;;;5034101;28;20157;-80
2023/06/16 10:58:24;;;;;;;5.95;4.07;;;23.10;46.30;;;;;;5033932;28;20209;-81
2023/06/16 11:01:17;;;;;;;4.82;4.03;;;23.10;46.30;;;;;;5033761;28;20178;-80
2023/06/16 11:03:44;;;;;;;4.40;3.92;;;23.10;46.30;;;;;;5033245;28;20703;-80
2023/06/16 11:06:10;;;;;;;6.07;4.55;;;23.10;46.40;;;;;;5017361;28;20186;-81
2023/06/16 11:08:53;;;;;;;4.78;3.95;;;23.10;46.30;;;;;;5035808;28;20158;-80
2023/06/16 11:11:19;;;;;;;4.22;3.78;;;23.00;46.20;;;;;;5034034;28;20187;-80
2023/06/16 11:13:46;;;;;;;5.22;4.30;;;23.10;46.10;;;;;;5017227;28;20189;-80
2023/06/16 11:16:12;;;;;;;6.05;4.30;;;23.20;45.80;;;;;;5033554;28;20151;-80
2023/06/16 11:18:38;;;;;;;4.88;4.38;;;23.20;45.80;;;;;;5033649;28;20293;-80
2023/06/16 11:21:06;;;;;;;4.50;4.10;;;23.20;45.70;;;;;;5033754;28;20228;-82
2023/06/16 11:23:32;;;;;;;4.47;4.07;;;23.20;45.80;;;;;;5033854;28;20175;-80
2023/06/16 11:26:07;;;;;;;4.47;3.95;;;23.10;45.90;;;;;;5017218;28;20170;-81
2023/06/16 11:28:33;;;;;;;4.80;4.30;;;23.20;45.80;;;;;;5016869;28;20178;-80
2023/06/16 11:31:01;;;;;;;4.20;3.80;;;23.20;45.70;;;;;;5016891;28;20612;-81
2023/06/16 11:33:28;;;;;;;4.32;3.92;;;23.20;45.60;;;;;;5017054;28;20155;-81
2023/06/16 11:35:54;;;;;;;4.40;4.00;;;23.20;45.50;;;;;;5033248;28;20640;-80
2023/06/16 11:38:24;;;;;;;4.75;3.88;;;23.20;45.70;;;;;;5015586;28;20633;-80
2023/06/16 11:40:50;;;;;;;4.40;4.00;;;23.20;45.70;;;;;;5032168;28;20151;-81
2023/06/16 11:43:18;;;;;;;4.75;4.03;;;23.20;45.60;;;;;;5032202;28;20257;-80
2023/06/16 11:45:43;;;;;;;4.65;4.25;;;23.20;45.60;;;;;;5033924;28;20170;-80
2023/06/16 11:48:09;;;;;;;4.50;4.10;;;23.20;45.70;;;;;;5032107;28;20229;-80
2023/06/16 11:50:35;;;;;;;4.20;3.80;;;23.20;45.80;;;;;;5015582;28;20549;-80
2023/06/16 11:53:01;;;;;;;4.50;4.10;;;23.10;45.70;;;;;;5032954;28;20187;-81
2023/06/16 11:55:28;;;;;;;4.32;3.92;;;23.10;45.80;;;;;;5000496;28;20186;-80
2023/06/16 11:57:54;;;;;;;4.40;4.00;;;23.10;45.90;;;;;;5033192;28;20166;-80
2023/06/16 12:00:21;;;;;;;4.35;3.70;;;23.10;46.00;;;;;;5033793;28;20525;-81
2023/06/16 12:02:48;;;;;;;4.07;3.67;;;23.10;46.00;;;;;;5033764;28;20143;-80
2023/06/16 12:05:28;;;;;;;4.22;3.83;;;23.10;45.90;;;;;;5033955;28;20610;-80
2023/06/16 12:07:54;;;;;;;4.35;3.90;;;23.10;45.90;;;;;;5032714;28;20158;-80
2023/06/16 12:10:22;;;;;;;4.53;4.07;;;23.10;45.90;;;;;;5016142;28;20159;-80
2023/06/16 12:12:47;;;;;;;4.93;4.10;;;23.10;45.90;;;;;;5016714;28;20151;-80
2023/06/16 12:15:15;;;;;;;5.50;4.30;;;23.10;45.90;;;;;;5032453;28;20281;-80
2023/06/16 12:17:52;;;;;;;4.40;4.00;;;23.10;45.90;;;;;;5016283;28;20606;-80
2023/06/16 12:20:18;;;;;;;5.30;4.07;;;23.10;45.90;;;;;;5000664;28;20171;-80
2023/06/16 12:22:44;;;;;;;4.68;4.20;;;23.10;46.00;;;;;;5033660;28;20515;-80
2023/06/16 12:25:13;;;;;;;4.47;4.07;;;23.10;45.80;;;;;;5016031;28;20170;-80
2023/06/16 12:27:44;;;;;;;4.15;3.75;;;23.10;45.90;;;;;;5016209;28;20212;-80
2023/06/16 12:30:11;;;;;;;4.50;4.10;;;23.10;45.80;;;;;;5032403;28;20151;-80
2023/06/16 12:32:36;;;;;;;4.80;4.40;;;23.10;45.90;;;;;;5032375;28;20236;-80
2023/06/16 12:35:02;;;;;;;4.30;3.90;;;23.10;46.00;;;;;;5034522;28;20194;-80
2023/06/16 12:37:29;;;;;;;4.15;3.70;;;23.10;45.80;;;;;;5032211;28;20159;-81
2023/06/16 12:40:00;;;;;;;4.32;3.92;;;23.10;45.80;;;;;;5016475;28;20162;-80
2023/06/16 12:42:29;;;;;;;4.32;3.92;;;23.10;45.80;;;;;;5000296;28;20158;-80
2023/06/16 12:45:02;;;;;;;4.50;4.10;;;23.10;45.80;;;;;;5016251;28;20634;-80
2023/06/16 12:47:28;;;;;;;4.07;3.78;;;23.10;45.70;;;;;;5023119;28;20321;-81